Time;durP1;ratioP1;P1;durP2;ratioP2;P2;SDS_P1;SDS_P2;PMS_P1;PMS_P2;Temp;Humidity;BMP_temperature;BMP_pressure;BME280_temperature;BME280_humidity;BME280_pressure;Samples;Min_cycle;Max_cycle;Signal;HPM_P1;HPM_P2
2021/11/16 00:00:40;;;;;;;41.05;25.83;;;;;;;6.11;100.00;100909.78;5014281;28;20042;-64
2021/11/16 00:03:08;;;;;;;39.45;24.20;;;;;;;6.21;100.00;100918.31;5018577;28;20037;-64
2021/11/16 00:05:35;;;;;;;38.28;24.00;;;;;;;6.23;100.00;100914.66;5018684;28;20415;-65
2021/11/16 00:08:04;;;;;;;38.22;24.17;;;;;;;6.22;100.00;100914.75;5018594;28;20439;-64
2021/11/16 00:10:31;;;;;;;35.17;23.58;;;;;;;6.24;100.00;100918.19;5018558;28;20049;-64
2021/11/16 00:12:58;;;;;;;38.35;23.83;;;;;;;6.15;100.00;100915.84;5018564;28;20041;-64
2021/11/16 00:15:25;;;;;;;38.90;24.45;;;;;;;6.07;100.00;100916.94;5018554;28;20053;-65
2021/11/16 00:17:52;;;;;;;41.10;24.23;;;;;;;6.02;100.00;100908.25;5018449;28;20061;-64
2021/11/16 00:20:20;;;;;;;42.53;24.95;;;;;;;6.12;100.00;100908.84;5018257;28;20065;-64
2021/11/16 00:22:47;;;;;;;45.38;24.83;;;;;;;6.21;100.00;100907.72;5018367;28;20042;-64
2021/11/16 00:27:44;;;;;;;40.72;23.90;;;;;;;6.10;100.00;100898.28;4998935;28;20046;-64
2021/11/16 00:30:12;;;;;;;36.15;23.73;;;;;;;6.07;100.00;100905.47;4997935;28;20056;-66
2021/11/16 00:32:39;;;;;;;40.30;24.45;;;;;;;6.08;100.00;100905.44;4998633;28;20042;-66
2021/11/16 00:35:07;;;;;;;38.13;23.67;;;;;;;6.11;100.00;100905.31;4998868;28;20105;-66
2021/11/16 00:37:35;;;;;;;38.83;24.95;;;;;;;6.11;100.00;100905.31;4998522;28;20053;-64
2021/11/16 00:40:09;;;;;;;38.42;24.48;;;;;;;6.14;100.00;100898.22;4998535;28;20042;-66
2021/11/16 00:42:37;;;;;;;43.30;25.98;;;;;;;6.16;100.00;100901.66;4998463;28;20046;-66
2021/11/16 00:45:06;;;;;;;44.80;26.23;;;;;;;6.19;100.00;100894.50;4998431;28;20121;-65
2021/11/16 00:47:33;;;;;;;43.55;24.55;;;;;;;6.18;100.00;100891.88;4998334;28;20042;-64
2021/11/16 00:50:00;;;;;;;42.55;24.17;;;;;;;6.14;100.00;100896.41;4998250;28;20054;-65
2021/11/16 00:52:27;;;;;;;38.60;23.52;;;;;;;6.06;100.00;100878.09;4998471;28;20400;-64
2021/11/16 00:54:54;;;;;;;42.03;24.67;;;;;;;6.13;100.00;100888.50;4996683;28;20046;-65
2021/11/16 00:57:21;;;;;;;38.45;23.02;;;;;;;6.28;100.00;100892.47;4997110;28;20050;-65
2021/11/16 00:59:48;;;;;;;39.72;25.70;;;;;;;6.23;100.00;100889.97;5016561;28;20096;-66
2021/11/16 01:02:15;;;;;;;36.72;23.98;;;;;;;6.26;100.00;100900.47;5017698;28;20060;-64
2021/11/16 01:04:51;;;;;;;41.97;25.15;;;;;;;6.18;100.00;100890.09;5017417;28;20073;-65
2021/11/16 01:07:20;;;;;;;45.17;25.73;;;;;;;6.19;100.00;100883.00;5017646;28;20046;-63
2021/11/16 01:09:47;;;;;;;44.53;27.25;;;;;;;6.05;100.00;100884.31;5017481;28;20142;-66
2021/11/16 01:12:16;;;;;;;41.90;24.48;;;;;;;6.11;100.00;100894.72;5000115;28;20052;-63
2021/11/16 01:14:43;;;;;;;40.88;25.92;;;;;;;6.04;100.00;100895.81;5016356;28;20156;-64
2021/11/16 01:17:10;;;;;;;44.63;26.15;;;;;;;6.06;100.00;100893.97;5017303;28;20050;-65
2021/11/16 01:19:37;;;;;;;37.22;23.98;;;;;;;6.08;100.00;100891.28;5017527;28;20404;-64
2021/11/16 01:22:05;;;;;;;39.03;23.90;;;;;;;6.07;100.00;100886.91;5017176;28;20058;-64
2021/11/16 01:24:32;;;;;;;37.33;23.17;;;;;;;6.09;100.00;100898.31;5015915;28;20100;-66
2021/11/16 01:26:59;;;;;;;42.03;25.02;;;;;;;6.04;100.00;100893.16;5017213;28;20065;-64
2021/11/16 01:29:26;;;;;;;35.55;22.50;;;;;;;6.19;100.00;100883.00;5016977;28;20045;-65
2021/11/16 01:31:55;;;;;;;38.03;24.05;;;;;;;6.14;100.00;100899.06;5016012;28;20041;-65
2021/11/16 01:34:31;;;;;;;37.38;23.83;;;;;;;6.20;100.00;100895.34;5016961;28;20406;-64
2021/11/16 01:36:58;;;;;;;40.08;23.25;;;;;;;6.19;100.00;100899.78;5015769;28;20054;-65
2021/11/16 01:39:26;;;;;;;35.88;23.85;;;;;;;6.15;100.00;100894.63;5016813;28;20108;-65
2021/11/16 01:41:53;;;;;;;43.83;22.17;;;;;;;6.22;100.00;100899.69;5016905;28;20694;-66
2021/11/16 01:44:20;;;;;;;33.63;21.88;;;;;;;6.15;100.00;100898.13;5016595;28;20041;-64
2021/11/16 01:46:47;;;;;;;36.75;22.10;;;;;;;6.19;100.00;100891.84;5015784;28;20049;-66
2021/11/16 01:49:14;;;;;;;33.28;21.27;;;;;;;6.16;100.00;100897.22;5016643;28;20042;-65
2021/11/16 01:51:41;;;;;;;34.67;22.00;;;;;;;6.06;100.00;100890.47;5016897;28;20054;-65
2021/11/16 01:54:08;;;;;;;34.78;21.80;;;;;;;6.03;100.00;100896.75;5016637;28;20104;-65
2021/11/16 01:56:40;;;;;;;38.83;22.48;;;;;;;6.10;100.00;100895.63;5016653;28;20386;-66
2021/11/16 01:59:08;;;;;;;33.38;21.45;;;;;;;6.07;100.00;100882.50;5016416;28;20053;-65
2021/11/16 02:01:37;;;;;;;33.95;22.13;;;;;;;6.10;100.00;100874.44;5016463;28;20053;-65
2021/11/16 02:04:05;;;;;;;39.60;23.77;;;;;;;5.89;100.00;100852.06;5016346;28;20042;-66
2021/11/16 02:06:38;;;;;;;41.83;24.42;;;;;;;6.06;100.00;100872.78;5015733;28;20042;-64
2021/11/16 02:09:11;;;;;;;38.85;21.95;;;;;;;6.13;100.00;100872.59;5016372;28;20058;-66
2021/11/16 02:11:39;;;;;;;37.30;23.85;;;;;;;6.18;100.00;100862.72;5016443;28;20821;-66
2021/11/16 02:14:13;;;;;;;35.60;22.83;;;;;;;6.13;100.00;100862.00;5016267;28;20038;-64
2021/11/16 02:16:42;;;;;;;36.78;22.05;;;;;;;6.14;100.00;100863.75;5016297;28;20042;-63
2021/11/16 02:19:12;;;;;;;38.20;22.27;;;;;;;5.95;100.00;100851.03;4998790;28;20050;-65
2021/11/16 02:21:40;;;;;;;38.88;23.17;;;;;;;5.99;100.00;100855.31;5016085;28;20435;-65
2021/11/16 02:24:08;;;;;;;37.00;22.80;;;;;;;5.96;100.00;100858.06;5016084;28;20097;-63
2021/11/16 02:26:36;;;;;;;36.55;22.85;;;;;;;5.98;100.00;100849.16;5015966;28;20049;-63
2021/11/16 02:29:05;;;;;;;37.85;22.55;;;;;;;5.93;100.00;100842.25;5015043;28;20351;-62
2021/11/16 02:31:32;;;;;;;35.42;21.65;;;;;;;5.95;100.00;100837.78;5016041;28;20391;-66
2021/11/16 02:33:59;;;;;;;33.70;21.02;;;;;;;5.92;100.00;100840.50;5014917;28;20347;-64
2021/11/16 02:36:29;;;;;;;35.05;21.95;;;;;;;5.84;100.00;100831.00;5015757;28;20494;-63
2021/11/16 02:38:56;;;;;;;37.47;21.30;;;;;;;5.82;100.00;100838.16;5015844;28;20408;-65
2021/11/16 02:41:29;;;;;;;30.08;20.63;;;;;;;5.94;100.00;100854.59;5015939;28;20073;-64
2021/11/16 02:43:58;;;;;;;31.25;21.17;;;;;;;5.93;100.00;100844.88;5014866;28;20089;-66
2021/11/16 02:46:26;;;;;;;35.28;21.42;;;;;;;5.96;100.00;100853.66;5015542;28;20515;-63
2021/11/16 02:48:53;;;;;;;31.75;20.65;;;;;;;5.94;100.00;100857.25;5015650;28;20375;-64
2021/11/16 02:51:20;;;;;;;36.03;21.75;;;;;;;6.00;100.00;100857.06;5015686;28;20116;-65
2021/11/16 02:53:48;;;;;;;34.25;21.50;;;;;;;5.95;100.00;100846.59;5015757;28;20084;-65
2021/11/16 02:56:15;;;;;;;34.75;22.35;;;;;;;5.93;100.00;100848.41;5014668;28;20364;-64
2021/11/16 02:58:42;;;;;;;33.72;20.65;;;;;;;5.82;100.00;100848.75;5015584;28;20046;-66
2021/11/16 03:01:15;;;;;;;34.25;21.90;;;;;;;5.79;100.00;100850.63;5015401;28;20313;-64
2021/11/16 03:03:43;;;;;;;35.50;21.88;;;;;;;5.76;100.00;100842.75;5015522;28;20130;-66
2021/11/16 03:06:11;;;;;;;36.47;21.60;;;;;;;5.81;100.00;100844.38;5015566;28;20038;-64
2021/11/16 03:08:39;;;;;;;34.17;21.95;;;;;;;5.87;100.00;100847.75;5015538;28;20054;-64
2021/11/16 03:11:08;;;;;;;36.70;21.45;;;;;;;5.84;100.00;100844.25;5015453;28;20444;-64
2021/11/16 03:13:36;;;;;;;36.15;22.85;;;;;;;5.87;100.00;100845.94;5015401;28;20049;-66
2021/11/16 03:16:15;;;;;;;35.00;21.83;;;;;;;5.89;100.00;100837.97;4997794;28;20065;-64
2021/11/16 03:18:53;;;;;;;34.13;20.52;;;;;;;5.95;99.91;100833.34;5015361;28;20503;-65
2021/11/16 03:21:23;;;;;;;29.67;18.45;;;;;;;5.84;100.00;100841.63;5014999;28;20073;-66
2021/11/16 03:23:52;;;;;;;30.65;17.95;;;;;;;5.88;99.70;100841.53;5015237;28;20049;-65
2021/11/16 03:26:22;;;;;;;29.83;19.70;;;;;;;5.81;100.00;100851.44;5015015;28;20048;-64
2021/11/16 03:28:51;;;;;;;32.67;19.73;;;;;;;5.60;100.00;100805.28;5015249;28;20053;-65
2021/11/16 03:34:06;;;;;;;29.08;18.60;;;;;;;5.79;100.00;100837.38;5015265;28;20042;-64
2021/11/16 03:36:33;;;;;;;30.95;17.95;;;;;;;5.89;98.93;100830.88;5015087;28;20042;-64
2021/11/16 03:39:03;;;;;;;27.05;18.08;;;;;;;5.84;100.00;100825.72;5013967;28;20450;-66
2021/11/16 03:41:31;;;;;;;31.50;17.48;;;;;;;5.89;100.00;100828.22;5014125;28;20050;-65
2021/11/16 03:43:58;;;;;;;26.90;17.67;;;;;;;5.82;99.78;100822.25;5015122;28;20038;-64
2021/11/16 03:46:25;;;;;;;29.13;17.67;;;;;;;5.82;100.00;100827.56;5015203;28;20359;-64
2021/11/16 03:48:53;;;;;;;28.83;17.85;;;;;;;5.89;99.29;100830.03;5015086;28;20042;-64
2021/11/16 03:51:20;;;;;;;29.58;17.35;;;;;;;5.75;100.00;100826.00;5013888;28;20053;-63
2021/11/16 03:53:46;;;;;;;28.50;15.90;;;;;;;5.77;100.00;100833.91;5015248;28;20100;-63
2021/11/16 03:56:13;;;;;;;31.48;16.85;;;;;;;5.78;100.00;100830.34;5013616;28;20096;-63
2021/11/16 03:58:43;;;;;;;28.70;17.50;;;;;;;5.74;100.00;100828.69;5014926;28;20042;-65
2021/11/16 04:01:10;;;;;;;30.00;18.05;;;;;;;5.76;100.00;100834.81;4997756;28;20046;-64
2021/11/16 04:03:39;;;;;;;30.15;17.73;;;;;;;5.79;100.00;100838.25;5014746;28;20038;-65
2021/11/16 04:06:08;;;;;;;30.38;18.17;;;;;;;5.84;100.00;100836.31;5014694;28;20053;-63
2021/11/16 04:08:35;;;;;;;27.92;17.85;;;;;;;5.87;100.00;100839.81;5014885;28;20046;-66
2021/11/16 04:11:03;;;;;;;29.33;17.85;;;;;;;5.81;100.00;100839.06;5030077;28;20069;-65
2021/11/16 04:13:30;;;;;;;31.95;17.92;;;;;;;5.74;100.00;100826.94;5014740;28;20045;-65
2021/11/16 04:15:58;;;;;;;29.48;18.05;;;;;;;5.78;100.00;100831.19;5013623;28;20045;-66
2021/11/16 04:18:25;;;;;;;29.58;17.30;;;;;;;5.74;100.00;100824.28;5013529;28;20451;-65
2021/11/16 04:20:57;;;;;;;30.30;17.95;;;;;;;5.82;100.00;100831.97;5014607;28;20058;-65
2021/11/16 04:23:25;;;;;;;31.63;18.23;;;;;;;5.79;100.00;100832.97;5014679;28;20053;-65
2021/11/16 04:25:54;;;;;;;26.63;16.40;;;;;;;5.74;100.00;100824.28;5014995;28;20366;-64
2021/11/16 04:28:22;;;;;;;26.00;16.45;;;;;;;5.81;100.00;100836.41;5015494;28;20038;-64
2021/11/16 04:30:50;;;;;;;24.63;14.95;;;;;;;5.89;100.00;100824.72;5018356;28;20050;-65
2021/11/16 04:33:19;;;;;;;23.85;15.52;;;;;;;5.89;100.00;100824.72;5017001;28;20092;-66
2021/11/16 04:35:47;;;;;;;21.60;14.02;;;;;;;5.92;100.00;100832.56;5018237;28;20070;-65
2021/11/16 04:38:16;;;;;;;23.48;14.30;;;;;;;5.92;99.79;100822.84;5000793;28;20061;-63
2021/11/16 04:40:45;;;;;;;23.25;14.63;;;;;;;5.95;100.00;100832.47;5018137;28;20053;-65
2021/11/16 04:43:17;;;;;;;29.73;17.13;;;;;;;5.88;100.00;100825.66;5018018;28;20475;-64
2021/11/16 04:45:48;;;;;;;28.55;16.13;;;;;;;5.87;100.00;100827.41;5017946;28;20057;-63
2021/11/16 04:49:07;;;;;;;26.17;16.13;;;;;;;5.93;100.00;100819.28;5018010;28;20053;-65
2021/11/16 05:02:42;;;;;;;24.83;15.23;;;;;;;5.89;100.00;100830.03;5015588;28;20444;-64
2021/11/16 05:05:11;;;;;;;26.02;15.50;;;;;;;5.85;100.00;100822.16;5017608;28;20046;-64
2021/11/16 05:07:45;;;;;;;29.55;16.70;;;;;;;5.77;100.00;100815.38;5016418;28;20046;-64
2021/11/16 05:10:12;;;;;;;25.65;15.70;;;;;;;5.77;100.00;100832.13;5017549;28;20046;-64
2021/11/16 05:12:39;;;;;;;24.75;15.50;;;;;;;5.77;100.00;100840.06;5017687;28;20053;-64
2021/11/16 05:15:09;;;;;;;24.92;14.93;;;;;;;5.78;100.00;100833.84;5017473;28;20049;-64
2021/11/16 05:17:36;;;;;;;27.45;15.07;;;;;;;5.74;100.00;100831.34;5032786;28;20042;-65
2021/11/16 05:20:05;;;;;;;26.00;15.80;;;;;;;5.74;100.00;100828.69;5017143;28;20045;-64
2021/11/16 05:22:32;;;;;;;27.55;16.50;;;;;;;5.73;100.00;100832.25;5017264;28;20050;-64
2021/11/16 05:24:59;;;;;;;26.20;16.10;;;;;;;5.73;100.00;100840.22;5017119;28;20052;-64
2021/11/16 05:27:26;;;;;;;32.60;15.60;;;;;;;5.74;100.00;100834.88;5016059;28;20422;-65
2021/11/16 05:29:53;;;;;;;27.13;14.63;;;;;;;5.82;100.00;100838.16;5017204;28;20044;-65
2021/11/16 05:32:23;;;;;;;23.47;15.53;;;;;;;5.88;99.75;100830.94;5017256;28;20116;-64
2021/11/16 05:34:50;;;;;;;25.73;14.80;;;;;;;5.80;100.00;100826.75;5017075;28;20048;-64
2021/11/16 05:37:17;;;;;;;28.05;14.77;;;;;;;5.79;100.00;100832.09;5015911;28;20081;-64
2021/11/16 05:39:43;;;;;;;22.13;15.20;;;;;;;5.70;100.00;100823.50;4999677;28;20053;-64
2021/11/16 05:42:10;;;;;;;26.02;15.20;;;;;;;5.75;100.00;100833.97;4999915;28;20049;-64
2021/11/16 05:44:40;;;;;;;23.50;15.27;;;;;;;5.84;100.00;100833.66;5016814;28;20045;-64
2021/11/16 05:47:07;;;;;;;24.92;15.45;;;;;;;5.82;100.00;100832.84;5015942;28;20410;-64
2021/11/16 05:49:34;;;;;;;24.85;15.60;;;;;;;5.78;100.00;100835.66;5016812;28;20065;-64
2021/11/16 05:52:03;;;;;;;24.90;15.35;;;;;;;5.82;100.00;100835.50;5016749;28;20367;-64
2021/11/16 05:54:33;;;;;;;24.30;15.23;;;;;;;5.85;100.00;100839.84;5015466;28;20121;-64
2021/11/16 05:57:06;;;;;;;26.27;15.48;;;;;;;5.89;100.00;100840.63;5015513;28;20434;-64
2021/11/16 05:59:35;;;;;;;23.58;15.23;;;;;;;5.83;100.00;100837.22;5016356;28;20054;-64
2021/11/16 06:02:05;;;;;;;27.33;15.20;;;;;;;5.84;100.00;100846.91;5016549;28;20041;-64
2021/11/16 06:04:33;;;;;;;22.63;13.82;;;;;;;5.85;100.00;100831.91;5016678;28;20628;-64
2021/11/16 06:07:02;;;;;;;24.35;14.50;;;;;;;5.94;100.00;100846.66;5016495;28;20390;-64
2021/11/16 06:09:30;;;;;;;24.42;14.98;;;;;;;5.94;100.00;100846.66;5016453;28;20065;-64
2021/11/16 06:12:00;;;;;;;19.98;13.60;;;;;;;5.92;100.00;100849.34;5015418;28;20390;-63
2021/11/16 06:14:28;;;;;;;24.38;14.68;;;;;;;5.87;100.00;100847.75;5015154;28;20042;-63
2021/11/16 06:16:56;;;;;;;23.95;13.80;;;;;;;5.84;100.00;100849.56;5016478;28;20034;-64
2021/11/16 06:19:24;;;;;;;24.38;14.77;;;;;;;5.85;100.00;100853.94;5016463;28;20038;-64
2021/11/16 06:21:52;;;;;;;20.52;13.93;;;;;;;5.85;100.00;100845.16;5016149;28;20108;-63
2021/11/16 06:24:19;;;;;;;25.80;14.02;;;;;;;5.85;100.00;100853.09;5016152;28;20038;-64
2021/11/16 06:26:47;;;;;;;22.48;13.98;;;;;;;5.85;100.00;100853.94;5016103;28;20122;-64
2021/11/16 06:29:13;;;;;;;23.65;14.07;;;;;;;5.79;100.00;100854.16;5014998;28;20049;-63
2021/11/16 06:31:40;;;;;;;20.98;13.20;;;;;;;5.76;100.00;100859.53;5016185;28;20113;-64
2021/11/16 06:34:09;;;;;;;21.42;13.98;;;;;;;5.68;100.00;100857.09;5014933;28;20431;-64
2021/11/16 06:36:39;;;;;;;23.77;13.10;;;;;;;5.63;100.00;100848.44;5012015;28;20048;-65
2021/11/16 06:39:12;;;;;;;28.40;14.10;;;;;;;5.73;100.00;100861.41;5011095;28;20100;-66
2021/11/16 06:41:39;;;;;;;22.95;13.57;;;;;;;5.81;100.00;100864.69;5014870;28;20508;-66
2021/11/16 06:44:08;;;;;;;25.02;14.23;;;;;;;5.77;100.00;100858.59;5015652;28;20347;-66
2021/11/16 06:46:35;;;;;;;23.17;14.82;;;;;;;5.77;100.00;100869.19;5015351;28;20052;-65
2021/11/16 06:49:04;;;;;;;26.02;13.90;;;;;;;5.83;100.00;100865.53;4997690;28;20042;-65
2021/11/16 06:51:37;;;;;;;20.70;12.75;;;;;;;5.79;100.00;100862.09;5013501;28;20068;-66
2021/11/16 06:54:20;;;;;;;20.55;12.50;;;;;;;5.79;100.00;100859.44;4999826;28;20449;-65
2021/11/16 06:56:51;;;;;;;15.23;9.98;;;;;;;5.75;100.00;100857.78;4997463;28;20423;-65
2021/11/16 06:59:19;;;;;;;19.20;11.13;;;;;;;5.64;100.00;100859.88;5013692;28;20050;-68
2021/11/16 07:01:46;;;;;;;19.00;11.50;;;;;;;5.62;100.00;100857.28;4995750;28;20061;-70
2021/11/16 07:04:14;;;;;;;19.15;11.27;;;;;;;5.68;100.00;100858.88;5005489;28;20084;-67
2021/11/16 07:06:47;;;;;;;20.38;11.65;;;;;;;5.61;100.00;100855.53;5014378;28;20042;-68
2021/11/16 07:09:15;;;;;;;15.32;9.95;;;;;;;5.73;100.00;100859.63;5015321;28;20053;-67
2021/11/16 07:11:54;;;;;;;13.73;9.63;;;;;;;5.70;100.00;100859.72;5015412;28;20056;-69
2021/11/16 07:14:24;;;;;;;17.98;9.50;;;;;;;5.65;100.00;100862.50;5015272;28;20106;-67
2021/11/16 07:16:51;;;;;;;14.77;9.23;;;;;;;5.70;100.00;100865.00;5013112;28;20050;-67
2021/11/16 07:19:17;;;;;;;12.60;8.57;;;;;;;5.69;100.00;100866.81;5014174;28;20042;-67
2021/11/16 07:21:51;;;;;;;13.88;8.35;;;;;;;5.61;100.00;100857.34;5013152;28;20054;-66
2021/11/16 07:24:25;;;;;;;16.40;8.55;;;;;;;5.64;100.00;100865.19;4997156;28;20042;-65
2021/11/16 07:26:59;;;;;;;14.18;7.82;;;;;;;5.57;100.00;100868.00;5015310;28;20061;-69
2021/11/16 07:29:46;;;;;;;15.77;8.35;;;;;;;5.62;100.00;100869.66;5013972;28;20053;-69
2021/11/16 07:32:21;;;;;;;14.05;7.75;;;;;;;5.58;100.00;100866.22;5013959;28;20050;-69
2021/11/16 07:34:50;;;;;;;13.25;8.30;;;;;;;5.61;100.00;100874.06;5012463;28;20042;-70
2021/11/16 07:37:25;;;;;;;13.20;8.00;;;;;;;5.64;100.00;100876.66;5014589;28;20104;-69
2021/11/16 07:39:59;;;;;;;12.55;8.07;;;;;;;5.68;100.00;100886.22;5017761;28;20045;-70
2021/11/16 07:42:31;;;;;;;12.10;7.82;;;;;;;5.70;100.00;100880.91;5016501;28;20104;-70
2021/11/16 07:45:08;;;;;;;12.20;7.45;;;;;;;5.70;100.00;100873.84;5015198;28;20050;-69
2021/11/16 07:47:43;;;;;;;11.57;7.30;;;;;;;5.69;100.00;100869.44;5015387;28;20446;-69
2021/11/16 07:50:30;;;;;;;11.57;7.70;;;;;;;5.76;100.00;100878.06;5013712;28;20057;-70
2021/11/16 07:53:17;;;;;;;12.68;8.63;;;;;;;5.68;100.00;100872.97;5017535;28;20062;-70
2021/11/16 07:55:56;;;;;;;15.75;7.82;;;;;;;5.69;100.00;100873.88;5014856;28;20428;-68
2021/11/16 07:58:30;;;;;;;11.65;7.53;;;;;;;5.67;100.00;100881.00;5015007;28;20042;-70
2021/11/16 08:01:01;;;;;;;13.10;8.63;;;;;;;5.62;100.00;100869.66;5014765;28;20342;-70
2021/11/16 08:03:31;;;;;;;11.93;7.60;;;;;;;5.60;100.00;100868.84;5014689;28;20480;-70
2021/11/16 08:06:11;;;;;;;12.27;8.18;;;;;;;5.67;100.00;100870.41;5018845;28;20335;-69
2021/11/16 08:08:51;;;;;;;11.10;7.22;;;;;;;5.61;100.00;100870.56;5017568;28;20046;-68
2021/11/16 08:14:11;;;;;;;12.80;7.45;;;;;;;5.41;100.00;100864.91;5018542;28;20053;-69
2021/11/16 08:16:57;;;;;;;14.32;8.25;;;;;;;5.57;100.00;100873.28;5018375;28;20427;-68
2021/11/16 08:19:26;;;;;;;13.48;8.13;;;;;;;5.56;100.00;100871.56;5018723;28;20371;-69
2021/11/16 08:21:57;;;;;;;14.70;7.95;;;;;;;5.62;100.00;100877.59;5017934;28;20447;-70
2021/11/16 08:24:33;;;;;;;11.45;8.23;;;;;;;5.64;100.00;100871.34;5017177;28;20050;-69
2021/11/16 08:27:02;;;;;;;12.70;7.93;;;;;;;5.56;100.00;100876.88;5020802;28;20193;-70
2021/11/16 08:29:35;;;;;;;13.43;8.75;;;;;;;5.69;100.00;100874.75;5002101;28;20488;-72
2021/11/16 08:32:11;;;;;;;12.55;8.07;;;;;;;5.72;100.00;100876.41;5006481;28;20356;-71
2021/11/16 08:34:42;;;;;;;10.82;7.38;;;;;;;5.74;100.00;100866.66;5017168;28;20042;-72
2021/11/16 08:37:11;;;;;;;12.23;8.40;;;;;;;5.73;100.00;100872.88;5018163;28;20037;-73
2021/11/16 08:39:44;;;;;;;16.02;9.07;;;;;;;5.83;100.00;100863.72;5005276;28;20455;-72
2021/11/16 08:42:21;;;;;;;12.70;7.30;;;;;;;5.78;100.00;100870.09;5018098;28;20041;-71
2021/11/16 08:45:00;;;;;;;10.65;7.70;;;;;;;5.87;100.00;100877.75;5016905;28;20052;-70
2021/11/16 08:47:30;;;;;;;13.23;8.10;;;;;;;5.70;100.00;100870.31;5017812;28;20458;-71
2021/11/16 08:49:58;;;;;;;16.10;8.38;;;;;;;5.66;100.00;100858.09;5017925;28;20056;-72
2021/11/16 08:52:28;;;;;;;15.85;8.27;;;;;;;5.66;100.00;100860.72;5017644;28;20297;-70
2021/11/16 08:55:10;;;;;;;15.75;8.93;;;;;;;5.79;100.00;100861.22;5016799;28;20042;-71
2021/11/16 08:57:42;;;;;;;14.25;8.55;;;;;;;5.78;100.00;100860.34;5016647;28;20049;-71
2021/11/16 09:00:20;;;;;;;13.13;8.98;;;;;;;5.75;100.00;100862.22;5017609;28;20050;-72
2021/11/16 09:02:49;;;;;;;12.15;8.90;;;;;;;5.75;100.00;100860.44;5017612;28;20093;-70
2021/11/16 09:05:18;;;;;;;13.60;8.88;;;;;;;5.86;100.00;100854.81;5017513;28;20064;-71
2021/11/16 09:07:54;;;;;;;12.32;8.35;;;;;;;5.96;100.00;100860.72;5006257;28;20048;-70
2021/11/16 09:10:37;;;;;;;14.18;9.05;;;;;;;5.93;100.00;100855.50;4997872;28;20444;-70
2021/11/16 09:13:07;;;;;;;11.45;8.27;;;;;;;5.80;100.00;100855.88;4997095;28;20077;-70
2021/11/16 09:15:45;;;;;;;13.70;9.20;;;;;;;5.90;100.00;100853.81;4997361;28;20042;-71
2021/11/16 09:18:14;;;;;;;13.32;8.98;;;;;;;5.79;100.00;100845.31;4997719;28;20054;-70
2021/11/16 09:20:43;;;;;;;15.93;8.77;;;;;;;5.88;100.00;100842.38;5008298;28;20104;-69
2021/11/16 09:23:24;;;;;;;15.20;9.93;;;;;;;5.96;100.00;100847.47;5017126;28;20046;-68
2021/11/16 09:25:53;;;;;;;;;;;;;;;5.96;100.00;100851.00;5017465;28;20423;-70
2021/11/16 09:28:37;;;;;;;14.15;8.23;;;;;;;5.89;100.00;100841.47;5017081;28;19926;-70
2021/11/16 09:31:17;;;;;;;16.60;8.32;;;;;;;5.88;100.00;100841.53;5012679;28;20046;-72
2021/11/16 09:33:44;;;;;;;12.23;8.83;;;;;;;5.89;100.00;100838.81;5007923;28;20049;-72
2021/11/16 09:36:22;;;;;;;13.73;8.32;;;;;;;5.85;100.00;100840.69;5016908;28;20433;-73
2021/11/16 09:38:53;;;;;;;11.82;8.30;;;;;;;5.88;100.00;100838.88;5016915;28;20057;-72
2021/11/16 09:41:31;;;;;;;14.27;9.38;;;;;;;5.91;100.00;100837.00;5016785;28;20052;-72
2021/11/16 09:44:11;;;;;;;13.50;7.97;;;;;;;5.89;100.00;100822.91;5016792;28;20133;-72
2021/11/16 09:46:47;;;;;;;13.73;8.45;;;;;;;6.02;100.00;100833.16;5016546;28;20042;-72
2021/11/16 09:49:16;;;;;;;13.25;7.40;;;;;;;5.92;99.96;100832.56;5015636;28;20049;-71
2021/11/16 09:52:09;;;;;;;12.05;8.13;;;;;;;5.99;100.00;100828.81;5016450;28;20050;-70
2021/11/16 09:54:58;;;;;;;13.10;8.02;;;;;;;6.02;100.00;100823.47;5015591;28;20053;-72
2021/11/16 09:57:31;;;;;;;13.48;7.40;;;;;;;6.13;100.00;100836.38;5015492;28;20108;-68
2021/11/16 10:00:21;;;;;;;11.15;7.65;;;;;;;6.05;98.51;100833.09;5015291;28;20064;-69
2021/11/16 10:02:52;;;;;;;14.20;8.23;;;;;;;6.08;100.00;100827.69;5020089;28;20172;-69
2021/11/16 10:05:26;;;;;;;14.27;8.38;;;;;;;6.29;99.72;100822.63;5017139;28;20042;-69
2021/11/16 10:07:56;;;;;;;11.15;7.47;;;;;;;6.23;97.78;100810.44;5015619;28;20046;-69
2021/11/16 10:10:26;;;;;;;14.45;8.40;;;;;;;6.21;98.60;100817.59;5015856;28;20060;-70
2021/11/16 10:12:57;;;;;;;12.57;7.78;;;;;;;6.11;98.55;100791.34;5015206;28;20056;-69
2021/11/16 10:15:28;;;;;;;11.60;7.30;;;;;;;6.42;98.19;100807.19;5016167;28;20045;-69
2021/11/16 10:17:55;;;;;;;11.45;7.47;;;;;;;6.41;97.60;100808.97;5014737;28;20068;-67
2021/11/16 10:20:33;;;;;;;12.70;7.15;;;;;;;6.48;96.72;100804.34;5015246;28;20049;-66
2021/11/16 10:23:29;;;;;;;11.80;7.03;;;;;;;6.45;97.30;100805.31;5015522;28;20054;-68
2021/11/16 10:25:56;;;;;;;13.60;7.07;;;;;;;6.47;96.09;100799.91;5014113;28;20449;-67
2021/11/16 10:28:25;;;;;;;17.02;7.78;;;;;;;6.41;96.76;100797.47;5015611;28;20042;-65
2021/11/16 10:30:58;;;;;;;11.15;7.25;;;;;;;6.41;95.67;100794.81;5015709;28;20042;-69
2021/11/16 10:33:50;;;;;;;10.45;6.95;;;;;;;6.58;94.66;100784.53;5009857;28;20055;-69
2021/11/16 10:36:18;;;;;;;12.35;7.53;;;;;;;6.63;94.15;100787.00;5015116;28;20045;-68
2021/11/16 10:38:52;;;;;;;11.82;6.88;;;;;;;6.66;94.27;100790.41;5014276;28;20332;-68
2021/11/16 10:41:23;;;;;;;12.00;7.68;;;;;;;6.59;95.56;100778.28;5015311;28;20041;-68
2021/11/16 10:44:04;;;;;;;10.07;6.90;;;;;;;6.72;95.40;100788.47;5015370;28;20034;-68
2021/11/16 10:46:40;;;;;;;11.05;6.97;;;;;;;6.70;92.70;100787.69;4993170;28;20379;-67
2021/11/16 10:49:13;;;;;;;10.85;7.38;;;;;;;6.62;93.55;100786.16;5012579;28;20057;-67
2021/11/16 10:51:45;;;;;;;11.65;7.57;;;;;;;6.59;94.38;100780.94;5014934;28;20052;-64
2021/11/16 10:54:12;;;;;;;10.75;7.40;;;;;;;6.54;95.38;100780.22;5013570;28;20066;-62
2021/11/16 10:56:41;;;;;;;10.80;7.57;;;;;;;6.54;96.46;100774.06;5015346;28;20070;-68
2021/11/16 10:59:09;;;;;;;11.98;7.78;;;;;;;6.66;94.24;100779.81;5012858;28;20076;-65
2021/11/16 11:01:53;;;;;;;10.57;7.07;;;;;;;6.49;94.02;100768.94;5016888;28;20052;-69
2021/11/16 11:04:24;;;;;;;13.32;7.20;;;;;;;6.56;94.32;100772.22;5014024;28;20156;-68
2021/11/16 11:06:53;;;;;;;10.55;7.03;;;;;;;6.47;92.63;100755.72;5017903;28;20047;-68
2021/11/16 11:09:22;;;;;;;9.80;6.90;;;;;;;6.44;92.93;100761.16;5016884;28;20046;-67
2021/11/16 11:11:51;;;;;;;13.50;6.82;;;;;;;6.47;91.59;100765.44;5015955;28;20038;-67
2021/11/16 11:14:25;;;;;;;11.55;7.05;;;;;;;6.39;93.53;100763.94;5012322;28;20104;-70
2021/11/16 11:16:56;;;;;;;17.55;7.15;;;;;;;6.38;93.53;100770.16;5023523;28;20084;-67
2021/11/16 11:19:27;;;;;;;11.50;6.93;;;;;;;6.34;92.05;100760.59;5017582;28;20041;-68
2021/11/16 11:21:58;;;;;;;11.38;6.90;;;;;;;6.34;92.62;100757.06;5023216;28;20053;-67
2021/11/16 11:24:36;;;;;;;11.15;6.85;;;;;;;6.44;93.22;100757.63;5016645;28;20041;-69
2021/11/16 11:27:28;;;;;;;11.30;7.03;;;;;;;6.58;94.33;100751.84;5015667;28;20057;-69
2021/11/16 11:29:57;;;;;;;10.52;6.93;;;;;;;6.56;91.56;100756.31;5012065;28;20049;-74
2021/11/16 11:32:35;;;;;;;13.82;6.70;;;;;;;6.66;92.17;100750.63;5015185;28;20046;-67
2021/11/16 11:35:13;;;;;;;9.57;6.07;;;;;;;6.60;92.81;100750.84;5011659;28;20053;-66
2021/11/16 11:38:09;;;;;;;12.15;5.90;;;;;;;6.64;94.01;100752.47;5015904;28;20434;-67
2021/11/16 11:40:39;;;;;;;8.85;6.03;;;;;;;6.63;93.35;100742.81;5018141;28;20045;-63
2021/11/16 11:43:10;;;;;;;9.13;6.43;;;;;;;6.63;93.58;100731.31;5019697;28;20066;-63
2021/11/16 11:45:39;;;;;;;9.15;6.30;;;;;;;6.79;92.83;100740.47;5024403;28;20038;-65
2021/11/16 11:48:12;;;;;;;9.82;6.35;;;;;;;6.87;91.08;100739.31;5018288;28;20041;-65
2021/11/16 11:50:54;;;;;;;8.77;5.88;;;;;;;6.78;92.53;100737.88;5018151;28;20048;-65